Etusivu
METAR-TAF:

METAR-TAF

Lentoasemat :

Joensuu, Suomi

Joensuun lentoasema

Leveyspiiri: 62-40N, Pituuspiiri: 029-38E, korkeus merenpinnasta: 119 m

Tämänhetkinen sää

Tämä raportti tehtiin 21 minuuttia sitten, kello 18.20 UTC
Tuuli 7 kn idästä
Lämpötila 8°C
Kosteus 100%
Ilmanpaine 1033 hPa
Näkyvyys 10 km tai enemmän
Hajonneita pilviä 500 ft:n korkeudessa

METAR: EFJO 221820Z 08007KT 9999 BKN005 08/08 Q1033

Aika: 21:41 (18:41 UTC)

Sääennuste

Tämä raportti tehtiin 1 tunti ja 9 minuuttia sitten, kello 17.32 UTC
Ennuste voimassa 22. päivästä klo 18 UTC - 22. päivään klo 23 UTC
Tuuli 7 kn idästä
Näkyvyys 10 km tai enemmän
Pilvistä 500 ft:n korkeudessa
Tulossa
22. päivästä klo 19 UTC - 22. päivään klo 21 UTC
Pilvistä 300 ft:n korkeudessa

TAF: EFJO 221732Z 2218/2223 10007KT 9999 OVC005 BECMG 2219/2221 OVC003

Säähavainnot ja -ennusteet yli 4000 lentoasemalta (METAR- ja TAF-raportit).

Käytössä olevat sääasemat on merkitty karttaan keltaisilla ja punaisilla pisteillä.

Aseta hiiri pisteen päälle nähdäksesi sääaseman nimen.

Klikkaa sitten nähdäksesi säähavainnot ja -ennusteet.

Kartan vaihtaminen: klikkaa mustalla rastilla varustettuja vihreitä pisteitä, niin voit zoomata sisään; viivalla varustettua vihreää pistettä, niin voit zoomata ulos tai vihreitä nuolia, niin pääset viereisille kartoille.


METAR-TAF: